sensor_id;sensor_type;location;lat;lon;timestamp;pressure;altitude;pressure_sealevel;temperature;humidity
26657;BME280;14279;50.010;8.260;2023-12-28T00:00:36;100400.84;;;5.84;91.33
26657;BME280;14279;50.010;8.260;2023-12-28T00:03:01;100408.59;;;5.84;91.24
26657;BME280;14279;50.010;8.260;2023-12-28T00:05:27;100416.16;;;5.90;91.17
26657;BME280;14279;50.010;8.260;2023-12-28T00:07:52;100406.53;;;5.97;90.83
26657;BME280;14279;50.010;8.260;2023-12-28T00:10:23;100412.06;;;5.83;91.33
26657;BME280;14279;50.010;8.260;2023-12-28T00:12:49;100410.28;;;5.85;91.87
26657;BME280;14279;50.010;8.260;2023-12-28T00:15:14;100404.78;;;5.97;91.65
26657;BME280;14279;50.010;8.260;2023-12-28T00:17:39;100411.00;;;5.90;90.70
26657;BME280;14279;50.010;8.260;2023-12-28T00:20:05;100409.47;;;5.83;90.79
26657;BME280;14279;50.010;8.260;2023-12-28T00:22:31;100411.09;;;5.87;91.21
26657;BME280;14279;50.010;8.260;2023-12-28T00:24:56;100407.53;;;5.91;90.75
26657;BME280;14279;50.010;8.260;2023-12-28T00:27:21;100408.94;;;6.05;90.47
26657;BME280;14279;50.010;8.260;2023-12-28T00:29:46;100402.97;;;6.03;90.05
26657;BME280;14279;50.010;8.260;2023-12-28T00:32:11;100409.84;;;6.04;90.18
26657;BME280;14279;50.010;8.260;2023-12-28T00:34:37;100412.22;;;6.11;89.75
26657;BME280;14279;50.010;8.260;2023-12-28T00:37:02;100409.84;;;6.04;89.02
26657;BME280;14279;50.010;8.260;2023-12-28T00:39:27;100410.84;;;5.96;89.29
26657;BME280;14279;50.010;8.260;2023-12-28T00:41:53;100404.78;;;5.97;89.09
26657;BME280;14279;50.010;8.260;2023-12-28T00:44:18;100399.31;;;5.77;90.29
26657;BME280;14279;50.010;8.260;2023-12-28T00:46:43;100401.53;;;5.91;89.47
26657;BME280;14279;50.010;8.260;2023-12-28T00:49:08;100395.41;;;5.95;89.27
26657;BME280;14279;50.010;8.260;2023-12-28T00:51:34;100400.50;;;5.98;89.51
26657;BME280;14279;50.010;8.260;2023-12-28T00:53:59;100405.72;;;5.95;89.64
26657;BME280;14279;50.010;8.260;2023-12-28T00:56:24;100395.47;;;5.92;89.03
26657;BME280;14279;50.010;8.260;2023-12-28T00:58:50;100394.34;;;6.04;88.02
26657;BME280;14279;50.010;8.260;2023-12-28T01:01:15;100389.25;;;6.00;87.82
26657;BME280;14279;50.010;8.260;2023-12-28T01:03:40;100376.50;;;5.93;87.70
26657;BME280;14279;50.010;8.260;2023-12-28T01:06:06;100374.66;;;5.98;88.17
26657;BME280;14279;50.010;8.260;2023-12-28T01:08:32;100405.94;;;5.87;88.03
26657;BME280;14279;50.010;8.260;2023-12-28T01:10:59;100415.91;;;6.03;87.52
26657;BME280;14279;50.010;8.260;2023-12-28T01:13:24;100418.94;;;6.17;86.68
26657;BME280;14279;50.010;8.260;2023-12-28T01:15:49;100423.44;;;6.10;85.95
26657;BME280;14279;50.010;8.260;2023-12-28T01:18:15;100427.69;;;6.13;85.34
26657;BME280;14279;50.010;8.260;2023-12-28T01:20:40;100444.34;;;6.34;85.33
26657;BME280;14279;50.010;8.260;2023-12-28T01:23:05;100433.03;;;6.38;85.53
26657;BME280;14279;50.010;8.260;2023-12-28T01:25:30;100439.03;;;6.39;85.49
26657;BME280;14279;50.010;8.260;2023-12-28T01:27:55;100443.50;;;6.34;84.24
26657;BME280;14279;50.010;8.260;2023-12-28T01:30:21;100454.44;;;6.43;84.68
26657;BME280;14279;50.010;8.260;2023-12-28T01:32:46;100429.56;;;6.39;84.84
26657;BME280;14279;50.010;8.260;2023-12-28T01:35:11;100426.91;;;6.42;85.18
26657;BME280;14279;50.010;8.260;2023-12-28T01:37:37;100439.78;;;6.44;85.59
26657;BME280;14279;50.010;8.260;2023-12-28T01:40:02;100445.59;;;6.51;85.76
26657;BME280;14279;50.010;8.260;2023-12-28T01:42:28;100449.31;;;6.42;86.01
26657;BME280;14279;50.010;8.260;2023-12-28T01:44:56;100460.13;;;6.56;85.46
26657;BME280;14279;50.010;8.260;2023-12-28T01:47:21;100469.53;;;6.59;85.42
26657;BME280;14279;50.010;8.260;2023-12-28T01:49:47;100464.91;;;6.70;84.81
26657;BME280;14279;50.010;8.260;2023-12-28T01:52:12;100475.28;;;6.70;84.71
26657;BME280;14279;50.010;8.260;2023-12-28T01:54:37;100466.50;;;6.74;84.71
26657;BME280;14279;50.010;8.260;2023-12-28T01:57:04;100471.81;;;6.70;84.83
26657;BME280;14279;50.010;8.260;2023-12-28T01:59:30;100470.91;;;6.72;85.03
26657;BME280;14279;50.010;8.260;2023-12-28T02:01:57;100468.41;;;6.69;84.89
26657;BME280;14279;50.010;8.260;2023-12-28T02:04:22;100473.13;;;6.85;84.22
26657;BME280;14279;50.010;8.260;2023-12-28T02:06:56;100486.16;;;6.82;84.95
26657;BME280;14279;50.010;8.260;2023-12-28T02:09:22;100488.59;;;6.86;84.82
26657;BME280;14279;50.010;8.260;2023-12-28T02:11:47;100491.28;;;6.83;84.68
26657;BME280;14279;50.010;8.260;2023-12-28T02:14:12;100490.41;;;6.84;84.78
26657;BME280;14279;50.010;8.260;2023-12-28T02:16:44;100488.66;;;6.85;85.12
26657;BME280;14279;50.010;8.260;2023-12-28T02:19:19;100485.00;;;6.92;84.61
26657;BME280;14279;50.010;8.260;2023-12-28T02:21:50;100481.63;;;6.88;84.74
26657;BME280;14279;50.010;8.260;2023-12-28T02:24:16;100483.22;;;6.94;84.46
26657;BME280;14279;50.010;8.260;2023-12-28T02:26:41;100481.31;;;6.99;84.75
26657;BME280;14279;50.010;8.260;2023-12-28T02:29:06;100490.84;;;6.99;85.00
26657;BME280;14279;50.010;8.260;2023-12-28T02:31:38;100494.22;;;7.01;84.58
26657;BME280;14279;50.010;8.260;2023-12-28T02:34:19;100501.84;;;7.05;84.59
26657;BME280;14279;50.010;8.260;2023-12-28T02:36:47;100506.19;;;7.05;84.89
26657;BME280;14279;50.010;8.260;2023-12-28T02:39:14;100501.75;;;7.10;84.90
26657;BME280;14279;50.010;8.260;2023-12-28T02:41:41;100488.81;;;7.10;84.93
26657;BME280;14279;50.010;8.260;2023-12-28T02:44:06;100490.34;;;7.16;84.61
26657;BME280;14279;50.010;8.260;2023-12-28T02:46:32;100484.94;;;7.24;84.37
26657;BME280;14279;50.010;8.260;2023-12-28T02:48:57;100487.59;;;7.22;84.62
26657;BME280;14279;50.010;8.260;2023-12-28T02:51:24;100493.41;;;7.29;84.05
26657;BME280;14279;50.010;8.260;2023-12-28T02:53:49;100488.03;;;7.35;83.87
26657;BME280;14279;50.010;8.260;2023-12-28T02:56:15;100494.97;;;7.34;83.26
26657;BME280;14279;50.010;8.260;2023-12-28T02:58:40;100494.88;;;7.37;81.43
26657;BME280;14279;50.010;8.260;2023-12-28T03:01:06;100485.16;;;7.44;81.41
26657;BME280;14279;50.010;8.260;2023-12-28T03:03:31;100473.53;;;7.58;81.40
26657;BME280;14279;50.010;8.260;2023-12-28T03:05:56;100470.53;;;7.70;79.41
26657;BME280;14279;50.010;8.260;2023-12-28T03:08:21;100463.16;;;7.85;79.53
26657;BME280;14279;50.010;8.260;2023-12-28T03:10:47;100480.16;;;7.93;78.20
26657;BME280;14279;50.010;8.260;2023-12-28T03:13:12;100482.44;;;8.03;77.30
26657;BME280;14279;50.010;8.260;2023-12-28T03:15:37;100486.72;;;8.04;77.03
26657;BME280;14279;50.010;8.260;2023-12-28T03:18:03;100477.78;;;8.12;76.92
26657;BME280;14279;50.010;8.260;2023-12-28T03:20:28;100488.56;;;8.25;76.49
26657;BME280;14279;50.010;8.260;2023-12-28T03:22:53;100493.75;;;8.25;76.67
26657;BME280;14279;50.010;8.260;2023-12-28T03:25:18;100477.28;;;8.28;76.70
26657;BME280;14279;50.010;8.260;2023-12-28T03:27:44;100485.78;;;8.32;76.69
26657;BME280;14279;50.010;8.260;2023-12-28T03:30:10;100483.19;;;8.32;77.37
26657;BME280;14279;50.010;8.260;2023-12-28T03:32:35;100469.56;;;8.52;76.88
26657;BME280;14279;50.010;8.260;2023-12-28T03:35:00;100485.41;;;8.42;77.35
26657;BME280;14279;50.010;8.260;2023-12-28T03:37:26;100485.91;;;8.54;77.16
26657;BME280;14279;50.010;8.260;2023-12-28T03:39:51;100481.25;;;8.64;77.23
26657;BME280;14279;50.010;8.260;2023-12-28T03:42:16;100502.53;;;8.48;77.86
26657;BME280;14279;50.010;8.260;2023-12-28T03:44:41;100505.72;;;8.56;77.93
26657;BME280;14279;50.010;8.260;2023-12-28T03:47:07;100479.03;;;8.53;77.85
26657;BME280;14279;50.010;8.260;2023-12-28T03:49:32;100490.72;;;8.65;77.64
26657;BME280;14279;50.010;8.260;2023-12-28T03:51:58;100489.84;;;8.64;77.93
26657;BME280;14279;50.010;8.260;2023-12-28T03:54:23;100495.72;;;8.69;78.09
26657;BME280;14279;50.010;8.260;2023-12-28T03:56:48;100501.41;;;8.55;78.86
26657;BME280;14279;50.010;8.260;2023-12-28T03:59:14;100505.44;;;8.64;78.84
26657;BME280;14279;50.010;8.260;2023-12-28T04:01:43;100509.00;;;8.62;79.25
26657;BME280;14279;50.010;8.260;2023-12-28T04:04:09;100501.72;;;8.71;79.21
26657;BME280;14279;50.010;8.260;2023-12-28T04:06:35;100497.22;;;8.77;78.93
26657;BME280;14279;50.010;8.260;2023-12-28T04:09:00;100500.03;;;8.70;79.62
26657;BME280;14279;50.010;8.260;2023-12-28T04:11:25;100489.53;;;8.74;79.54
26657;BME280;14279;50.010;8.260;2023-12-28T04:13:51;100495.84;;;8.90;79.14
26657;BME280;14279;50.010;8.260;2023-12-28T04:16:16;100496.06;;;8.84;79.44
26657;BME280;14279;50.010;8.260;2023-12-28T04:18:44;100506.03;;;8.71;80.35
26657;BME280;14279;50.010;8.260;2023-12-28T04:21:10;100527.09;;;8.63;80.58
26657;BME280;14279;50.010;8.260;2023-12-28T04:23:37;100511.19;;;8.72;80.63
26657;BME280;14279;50.010;8.260;2023-12-28T04:26:02;100511.88;;;8.78;80.42
26657;BME280;14279;50.010;8.260;2023-12-28T04:28:28;100494.72;;;8.74;80.66
26657;BME280;14279;50.010;8.260;2023-12-28T04:30:53;100488.28;;;8.60;81.62
26657;BME280;14279;50.010;8.260;2023-12-28T04:33:18;100497.03;;;8.57;81.92
26657;BME280;14279;50.010;8.260;2023-12-28T04:35:44;100498.81;;;8.55;82.43
26657;BME280;14279;50.010;8.260;2023-12-28T04:38:10;100499.63;;;8.57;82.62
26657;BME280;14279;50.010;8.260;2023-12-28T04:40:35;100505.63;;;8.58;82.32
26657;BME280;14279;50.010;8.260;2023-12-28T04:43:00;100503.84;;;8.60;82.74
26657;BME280;14279;50.010;8.260;2023-12-28T04:45:25;100501.31;;;8.59;83.23
26657;BME280;14279;50.010;8.260;2023-12-28T04:47:51;100508.34;;;8.55;83.64
26657;BME280;14279;50.010;8.260;2023-12-28T04:50:16;100514.81;;;8.68;83.24
26657;BME280;14279;50.010;8.260;2023-12-28T04:52:41;100518.69;;;8.56;83.64
26657;BME280;14279;50.010;8.260;2023-12-28T04:55:07;100514.06;;;8.65;83.69
26657;BME280;14279;50.010;8.260;2023-12-28T04:57:32;100522.09;;;8.57;84.38
26657;BME280;14279;50.010;8.260;2023-12-28T04:59:57;100526.25;;;8.63;84.11
26657;BME280;14279;50.010;8.260;2023-12-28T05:02:22;100529.66;;;8.65;84.49
26657;BME280;14279;50.010;8.260;2023-12-28T05:04:48;100524.50;;;8.63;84.97
26657;BME280;14279;50.010;8.260;2023-12-28T05:07:13;100526.25;;;8.63;85.12
26657;BME280;14279;50.010;8.260;2023-12-28T05:09:38;100532.25;;;8.65;85.47
26657;BME280;14279;50.010;8.260;2023-12-28T05:12:04;100537.38;;;8.66;85.53
26657;BME280;14279;50.010;8.260;2023-12-28T05:14:29;100546.16;;;8.62;86.05
26657;BME280;14279;50.010;8.260;2023-12-28T05:16:54;100538.38;;;8.62;86.58
26657;BME280;14279;50.010;8.260;2023-12-28T05:19:19;100532.38;;;8.60;87.20
26657;BME280;14279;50.010;8.260;2023-12-28T05:21:45;100541.75;;;8.64;87.11
26657;BME280;14279;50.010;8.260;2023-12-28T05:24:11;100534.97;;;8.60;87.47
26657;BME280;14279;50.010;8.260;2023-12-28T05:26:36;100534.06;;;8.61;87.65
26657;BME280;14279;50.010;8.260;2023-12-28T05:29:01;100535.97;;;8.56;88.16
26657;BME280;14279;50.010;8.260;2023-12-28T05:31:27;100533.28;;;8.59;88.54
26657;BME280;14279;50.010;8.260;2023-12-28T05:33:52;100519.69;;;8.52;89.10
26657;BME280;14279;50.010;8.260;2023-12-28T05:36:17;100527.44;;;8.54;88.80
26657;BME280;14279;50.010;8.260;2023-12-28T05:38:42;100520.53;;;8.53;89.05
26657;BME280;14279;50.010;8.260;2023-12-28T05:41:10;100534.59;;;8.46;89.57
26657;BME280;14279;50.010;8.260;2023-12-28T05:43:37;100526.81;;;8.46;89.92
26657;BME280;14279;50.010;8.260;2023-12-28T05:46:02;100529.25;;;8.50;89.88
26657;BME280;14279;50.010;8.260;2023-12-28T05:48:28;100525.94;;;8.45;90.05
26657;BME280;14279;50.010;8.260;2023-12-28T05:50:53;100511.34;;;8.42;90.14
26657;BME280;14279;50.010;8.260;2023-12-28T05:53:18;100509.66;;;8.41;90.45
26657;BME280;14279;50.010;8.260;2023-12-28T05:55:43;100512.94;;;8.47;90.32
26657;BME280;14279;50.010;8.260;2023-12-28T05:58:09;100516.34;;;8.49;90.15
26657;BME280;14279;50.010;8.260;2023-12-28T06:00:35;100519.81;;;8.48;90.18
26657;BME280;14279;50.010;8.260;2023-12-28T06:03:07;100521.44;;;8.52;89.85
26657;BME280;14279;50.010;8.260;2023-12-28T06:05:33;100527.09;;;8.63;89.26
26657;BME280;14279;50.010;8.260;2023-12-28T06:07:58;100527.19;;;8.60;89.46
26657;BME280;14279;50.010;8.260;2023-12-28T06:10:24;100528.06;;;8.61;89.36
26657;BME280;14279;50.010;8.260;2023-12-28T06:12:49;100532.44;;;8.59;89.54
26657;BME280;14279;50.010;8.260;2023-12-28T06:15:15;100527.16;;;8.62;89.44
26657;BME280;14279;50.010;8.260;2023-12-28T06:17:40;100523.75;;;8.60;89.27
26657;BME280;14279;50.010;8.260;2023-12-28T06:20:06;100517.41;;;8.68;89.04
26657;BME280;14279;50.010;8.260;2023-12-28T06:22:32;100528.34;;;8.53;89.74
26657;BME280;14279;50.010;8.260;2023-12-28T06:24:57;100526.66;;;8.50;90.28
26657;BME280;14279;50.010;8.260;2023-12-28T06:27:22;100529.09;;;8.55;90.02
26657;BME280;14279;50.010;8.260;2023-12-28T06:29:50;100528.97;;;8.60;90.03
26657;BME280;14279;50.010;8.260;2023-12-28T06:32:16;100519.66;;;8.54;90.11
26657;BME280;14279;50.010;8.260;2023-12-28T06:34:41;100523.19;;;8.51;90.57
26657;BME280;14279;50.010;8.260;2023-12-28T06:37:06;100518.09;;;8.48;90.87
26657;BME280;14279;50.010;8.260;2023-12-28T06:39:31;100529.22;;;8.52;90.94
26657;BME280;14279;50.010;8.260;2023-12-28T06:41:57;100517.94;;;8.53;90.82
26657;BME280;14279;50.010;8.260;2023-12-28T06:44:22;100516.25;;;8.52;90.99
26657;BME280;14279;50.010;8.260;2023-12-28T06:46:47;100518.88;;;8.50;91.21
26657;BME280;14279;50.010;8.260;2023-12-28T06:49:13;100517.88;;;8.54;91.10
26657;BME280;14279;50.010;8.260;2023-12-28T06:51:38;100523.00;;;8.56;91.11
26657;BME280;14279;50.010;8.260;2023-12-28T06:54:04;100509.78;;;8.64;90.95
26657;BME280;14279;50.010;8.260;2023-12-28T06:56:29;100532.34;;;8.62;91.00
26657;BME280;14279;50.010;8.260;2023-12-28T06:58:54;100520.31;;;8.59;91.01
26657;BME280;14279;50.010;8.260;2023-12-28T07:01:19;100520.00;;;8.68;90.88
26657;BME280;14279;50.010;8.260;2023-12-28T07:03:45;100528.50;;;8.72;90.81
26657;BME280;14279;50.010;8.260;2023-12-28T07:06:10;100533.56;;;8.77;90.52
26657;BME280;14279;50.010;8.260;2023-12-28T07:08:36;100523.94;;;8.79;90.49
26657;BME280;14279;50.010;8.260;2023-12-28T07:11:01;100526.09;;;8.91;90.06
26657;BME280;14279;50.010;8.260;2023-12-28T07:13:27;100518.63;;;8.82;90.24
26657;BME280;14279;50.010;8.260;2023-12-28T07:15:52;100527.56;;;8.75;90.75
26657;BME280;14279;50.010;8.260;2023-12-28T07:18:18;100524.22;;;8.71;91.17
26657;BME280;14279;50.010;8.260;2023-12-28T07:20:43;100533.56;;;8.77;90.67
26657;BME280;14279;50.010;8.260;2023-12-28T07:23:09;100534.44;;;8.76;90.78
26657;BME280;14279;50.010;8.260;2023-12-28T07:25:34;100543.88;;;8.78;90.88
26657;BME280;14279;50.010;8.260;2023-12-28T07:27:59;100538.41;;;8.86;90.29
26657;BME280;14279;50.010;8.260;2023-12-28T07:30:25;100559.44;;;8.78;90.66
26657;BME280;14279;50.010;8.260;2023-12-28T07:32:50;100549.84;;;8.80;90.94
26657;BME280;14279;50.010;8.260;2023-12-28T07:35:15;100546.28;;;8.83;90.89
26657;BME280;14279;50.010;8.260;2023-12-28T07:37:40;100548.75;;;8.87;90.70
26657;BME280;14279;50.010;8.260;2023-12-28T07:40:06;100552.44;;;8.80;90.56
26657;BME280;14279;50.010;8.260;2023-12-28T07:42:31;100550.38;;;8.90;90.29
26657;BME280;14279;50.010;8.260;2023-12-28T07:44:57;100549.66;;;8.86;90.49
26657;BME280;14279;50.010;8.260;2023-12-28T07:47:22;100558.34;;;8.85;90.63
26657;BME280;14279;50.010;8.260;2023-12-28T07:49:47;100560.66;;;8.93;90.19
26657;BME280;14279;50.010;8.260;2023-12-28T07:52:12;100570.31;;;8.90;90.37
26657;BME280;14279;50.010;8.260;2023-12-28T07:54:38;100565.13;;;8.90;90.37
26657;BME280;14279;50.010;8.260;2023-12-28T07:57:03;100560.97;;;8.84;90.45
26657;BME280;14279;50.010;8.260;2023-12-28T07:59:29;100559.16;;;8.86;90.68
26657;BME280;14279;50.010;8.260;2023-12-28T08:01:55;100545.38;;;8.84;90.51
26657;BME280;14279;50.010;8.260;2023-12-28T08:04:20;100559.16;;;8.86;90.75
26657;BME280;14279;50.010;8.260;2023-12-28T08:06:46;100551.38;;;8.86;90.66
26657;BME280;14279;50.010;8.260;2023-12-28T08:09:11;100557.56;;;8.82;90.76
26657;BME280;14279;50.010;8.260;2023-12-28T08:11:36;100550.69;;;8.81;90.87
26657;BME280;14279;50.010;8.260;2023-12-28T08:14:01;100557.53;;;8.83;91.15
26657;BME280;14279;50.010;8.260;2023-12-28T08:16:26;100557.91;;;8.72;91.45
26657;BME280;14279;50.010;8.260;2023-12-28T08:18:52;100553.44;;;8.76;91.23
26657;BME280;14279;50.010;8.260;2023-12-28T08:21:17;100553.00;;;8.65;91.79
26657;BME280;14279;50.010;8.260;2023-12-28T08:23:43;100554.81;;;8.63;91.77
26657;BME280;14279;50.010;8.260;2023-12-28T08:26:08;100552.94;;;8.66;91.78
26657;BME280;14279;50.010;8.260;2023-12-28T08:28:33;100560.03;;;8.61;92.11
26657;BME280;14279;50.010;8.260;2023-12-28T08:30:59;100558.28;;;8.62;92.11
26657;BME280;14279;50.010;8.260;2023-12-28T08:33:24;100553.94;;;8.62;92.22
26657;BME280;14279;50.010;8.260;2023-12-28T08:35:49;100555.69;;;8.62;92.11
26657;BME280;14279;50.010;8.260;2023-12-28T08:38:15;100547.13;;;8.60;92.17
26657;BME280;14279;50.010;8.260;2023-12-28T08:40:41;100541.03;;;8.61;92.65
26657;BME280;14279;50.010;8.260;2023-12-28T08:43:06;100543.56;;;8.62;92.27
26657;BME280;14279;50.010;8.260;2023-12-28T08:45:31;100549.63;;;8.63;92.63
26657;BME280;14279;50.010;8.260;2023-12-28T08:47:57;100551.97;;;8.69;92.23
26657;BME280;14279;50.010;8.260;2023-12-28T08:50:22;100568.22;;;8.74;92.01
26657;BME280;14279;50.010;8.260;2023-12-28T08:52:48;100563.22;;;8.69;92.00
26657;BME280;14279;50.010;8.260;2023-12-28T08:55:13;100566.34;;;8.79;91.56
26657;BME280;14279;50.010;8.260;2023-12-28T08:57:39;100560.28;;;8.79;91.73
26657;BME280;14279;50.010;8.260;2023-12-28T09:00:06;100555.66;;;8.87;91.21
26657;BME280;14279;50.010;8.260;2023-12-28T09:02:31;100563.66;;;8.81;91.33
26657;BME280;14279;50.010;8.260;2023-12-28T09:04:58;100564.53;;;8.81;91.38
26657;BME280;14279;50.010;8.260;2023-12-28T09:07:23;100566.06;;;8.87;91.34
26657;BME280;14279;50.010;8.260;2023-12-28T09:09:49;100567.72;;;8.90;91.14
26657;BME280;14279;50.010;8.260;2023-12-28T09:12:14;100574.59;;;8.91;90.97
26657;BME280;14279;50.010;8.260;2023-12-28T09:14:39;100577.19;;;8.91;91.16
26657;BME280;14279;50.010;8.260;2023-12-28T09:17:04;100584.84;;;8.94;91.04
26657;BME280;14279;50.010;8.260;2023-12-28T09:19:29;100592.38;;;9.01;90.56
26657;BME280;14279;50.010;8.260;2023-12-28T09:21:55;100583.50;;;9.07;90.37
26657;BME280;14279;50.010;8.260;2023-12-28T09:24:20;100576.56;;;9.08;89.98
26657;BME280;14279;50.010;8.260;2023-12-28T09:26:48;100583.63;;;9.04;90.21
26657;BME280;14279;50.010;8.260;2023-12-28T09:29:14;100588.44;;;9.15;89.80
26657;BME280;14279;50.010;8.260;2023-12-28T09:31:39;100584.94;;;9.16;89.64
26657;BME280;14279;50.010;8.260;2023-12-28T09:34:04;100577.97;;;9.16;89.57
26657;BME280;14279;50.010;8.260;2023-12-28T09:36:30;100588.94;;;9.25;88.90
26657;BME280;14279;50.010;8.260;2023-12-28T09:38:56;100588.03;;;9.26;88.83
26657;BME280;14279;50.010;8.260;2023-12-28T09:41:25;100596.22;;;9.39;88.28
26657;BME280;14279;50.010;8.260;2023-12-28T09:44:11;100595.91;;;9.46;88.79
26657;BME280;14279;50.010;8.260;2023-12-28T09:46:41;100599.03;;;9.78;86.38
26657;BME280;14279;50.010;8.260;2023-12-28T09:49:06;100600.91;;;9.97;86.54
26657;BME280;14279;50.010;8.260;2023-12-28T09:51:32;100608.91;;;9.92;84.16
26657;BME280;14279;50.010;8.260;2023-12-28T09:53:57;100601.91;;;9.95;84.78
26657;BME280;14279;50.010;8.260;2023-12-28T09:56:23;100602.53;;;10.00;84.74
26657;BME280;14279;50.010;8.260;2023-12-28T09:58:50;100597.88;;;10.08;84.08
26657;BME280;14279;50.010;8.260;2023-12-28T10:01:17;100603.03;;;10.10;83.61
26657;BME280;14279;50.010;8.260;2023-12-28T10:03:42;100607.81;;;10.20;83.34
26657;BME280;14279;50.010;8.260;2023-12-28T10:06:07;100592.69;;;10.08;82.44
26657;BME280;14279;50.010;8.260;2023-12-28T10:08:33;100595.63;;;10.21;82.02
26657;BME280;14279;50.010;8.260;2023-12-28T10:10:58;100594.78;;;10.43;81.20
26657;BME280;14279;50.010;8.260;2023-12-28T10:13:25;100606.47;;;10.32;81.54
26657;BME280;14279;50.010;8.260;2023-12-28T10:15:50;100608.91;;;10.35;80.61
26657;BME280;14279;50.010;8.260;2023-12-28T10:18:19;100603.38;;;10.45;80.66
26657;BME280;14279;50.010;8.260;2023-12-28T10:20:50;100610.34;;;10.44;79.86
26657;BME280;14279;50.010;8.260;2023-12-28T10:23:17;100603.69;;;10.58;79.65
26657;BME280;14279;50.010;8.260;2023-12-28T10:25:42;100608.78;;;10.61;78.71
26657;BME280;14279;50.010;8.260;2023-12-28T10:28:09;100607.66;;;10.66;79.36
26657;BME280;14279;50.010;8.260;2023-12-28T10:30:35;100614.50;;;10.26;79.57
26657;BME280;14279;50.010;8.260;2023-12-28T10:33:00;100598.41;;;10.38;79.51
26657;BME280;14279;50.010;8.260;2023-12-28T10:35:25;100606.47;;;10.32;79.80
26657;BME280;14279;50.010;8.260;2023-12-28T10:37:52;100600.88;;;10.42;79.12
26657;BME280;14279;50.010;8.260;2023-12-28T10:40:21;100598.16;;;10.45;78.32
26657;BME280;14279;50.010;8.260;2023-12-28T10:42:52;100598.22;;;10.43;78.39
26657;BME280;14279;50.010;8.260;2023-12-28T10:45:19;100596.25;;;10.48;78.01
26657;BME280;14279;50.010;8.260;2023-12-28T10:48:12;100599.78;;;10.47;77.79
26657;BME280;14279;50.010;8.260;2023-12-28T10:50:49;100589.97;;;10.54;77.32
26657;BME280;14279;50.010;8.260;2023-12-28T10:53:33;100596.78;;;10.57;77.09
26657;BME280;14279;50.010;8.260;2023-12-28T10:56:17;100577.31;;;10.65;76.63
26657;BME280;14279;50.010;8.260;2023-12-28T10:58:50;100589.50;;;10.65;76.37
26657;BME280;14279;50.010;8.260;2023-12-28T11:01:32;100591.41;;;10.82;75.78
26657;BME280;14279;50.010;8.260;2023-12-28T11:04:12;100584.28;;;10.86;75.14
26657;BME280;14279;50.010;8.260;2023-12-28T11:06:40;100593.41;;;10.75;74.39
26657;BME280;14279;50.010;8.260;2023-12-28T11:09:08;100585.13;;;10.86;73.96
26657;BME280;14279;50.010;8.260;2023-12-28T11:11:35;100595.53;;;10.86;73.43
26657;BME280;14279;50.010;8.260;2023-12-28T11:14:01;100583.25;;;10.90;72.98
26657;BME280;14279;50.010;8.260;2023-12-28T11:16:28;100582.03;;;10.97;72.86
26657;BME280;14279;50.010;8.260;2023-12-28T11:18:54;100583.25;;;10.90;73.01
26657;BME280;14279;50.010;8.260;2023-12-28T11:21:21;100574.16;;;10.98;72.21
26657;BME280;14279;50.010;8.260;2023-12-28T11:23:47;100565.09;;;11.07;72.09
26657;BME280;14279;50.010;8.260;2023-12-28T11:26:17;100577.28;;;11.07;72.77
26657;BME280;14279;50.010;8.260;2023-12-28T11:28:43;100564.47;;;11.21;71.88
26657;BME280;14279;50.010;8.260;2023-12-28T11:31:14;100568.06;;;11.38;70.73
26657;BME280;14279;50.010;8.260;2023-12-28T11:33:55;100573.50;;;11.33;70.58
26657;BME280;14279;50.010;8.260;2023-12-28T11:36:23;100559.91;;;11.26;70.78
26657;BME280;14279;50.010;8.260;2023-12-28T11:38:50;100564.81;;;11.33;70.54
26657;BME280;14279;50.010;8.260;2023-12-28T11:41:20;100567.00;;;11.42;70.69
26657;BME280;14279;50.010;8.260;2023-12-28T11:43:54;100565.16;;;11.25;70.83
26657;BME280;14279;50.010;8.260;2023-12-28T11:46:22;100562.16;;;11.34;70.67
26657;BME280;14279;50.010;8.260;2023-12-28T11:48:47;100557.28;;;11.26;70.28
26657;BME280;14279;50.010;8.260;2023-12-28T11:51:13;100551.38;;;11.42;69.31
26657;BME280;14279;50.010;8.260;2023-12-28T11:53:39;100551.72;;;11.34;69.46
26657;BME280;14279;50.010;8.260;2023-12-28T11:56:06;100548.06;;;11.38;69.74
26657;BME280;14279;50.010;8.260;2023-12-28T11:58:35;100543.63;;;11.40;70.18
26657;BME280;14279;50.010;8.260;2023-12-28T12:01:01;100543.94;;;11.52;69.82
26657;BME280;14279;50.010;8.260;2023-12-28T12:03:27;100528.81;;;11.41;70.34
26657;BME280;14279;50.010;8.260;2023-12-28T12:05:52;100524.53;;;11.40;69.83
26657;BME280;14279;50.010;8.260;2023-12-28T12:08:19;100523.84;;;11.36;70.28
26657;BME280;14279;50.010;8.260;2023-12-28T12:10:44;100507.44;;;11.52;69.82
26657;BME280;14279;50.010;8.260;2023-12-28T12:13:10;100517.69;;;11.37;70.16
26657;BME280;14279;50.010;8.260;2023-12-28T12:15:35;100517.91;;;11.33;70.91
26657;BME280;14279;50.010;8.260;2023-12-28T12:18:01;100511.72;;;11.35;70.86
26657;BME280;14279;50.010;8.260;2023-12-28T12:20:28;100503.53;;;11.24;71.62
26657;BME280;14279;50.010;8.260;2023-12-28T12:22:57;100508.75;;;11.24;71.87
26657;BME280;14279;50.010;8.260;2023-12-28T12:25:22;100496.91;;;11.36;72.27
26657;BME280;14279;50.010;8.260;2023-12-28T12:27:48;100492.94;;;11.28;72.59
26657;BME280;14279;50.010;8.260;2023-12-28T12:30:13;100494.44;;;11.33;72.72
26657;BME280;14279;50.010;8.260;2023-12-28T12:32:39;100486.16;;;11.24;73.40
26657;BME280;14279;50.010;8.260;2023-12-28T12:35:09;100491.56;;;11.39;73.19
26657;BME280;14279;50.010;8.260;2023-12-28T12:37:34;100476.28;;;11.31;74.13
26657;BME280;14279;50.010;8.260;2023-12-28T12:40:00;100466.25;;;11.41;73.78
26657;BME280;14279;50.010;8.260;2023-12-28T12:42:25;100476.66;;;11.23;74.24
26657;BME280;14279;50.010;8.260;2023-12-28T12:44:50;100472.59;;;11.18;74.63
26657;BME280;14279;50.010;8.260;2023-12-28T12:47:16;100468.84;;;11.23;74.85
26657;BME280;14279;50.010;8.260;2023-12-28T12:49:41;100457.03;;;11.34;74.82
26657;BME280;14279;50.010;8.260;2023-12-28T12:52:09;100456.44;;;11.28;75.50